createdAt,value
2019-06-27T00:01:23.844Z,82.48
2019-06-27T00:03:51.238Z,82.61
2019-06-27T00:06:18.657Z,83.00
2019-06-27T00:08:46.063Z,83.20
2019-06-27T00:11:13.466Z,83.72
2019-06-27T00:13:40.862Z,83.82
2019-06-27T00:16:08.284Z,83.00
2019-06-27T00:18:35.684Z,81.57
2019-06-27T00:21:03.157Z,81.82
2019-06-27T00:23:30.535Z,81.10
2019-06-27T00:25:57.965Z,80.92
2019-06-27T00:28:25.359Z,79.87
2019-06-27T00:30:52.748Z,78.89
2019-06-27T00:33:20.111Z,78.69
2019-06-27T00:35:47.522Z,78.76
2019-06-27T00:38:15.066Z,78.47
2019-06-27T00:40:42.411Z,78.19
2019-06-27T00:43:09.809Z,78.37
2019-06-27T00:45:37.225Z,78.48
2019-06-27T00:48:04.706Z,78.00
2019-06-27T00:50:32.119Z,78.35
2019-06-27T00:52:59.590Z,77.90
2019-06-27T00:55:27.093Z,77.92
2019-06-27T00:57:54.472Z,77.86
2019-06-27T01:00:21.878Z,77.62
2019-06-27T01:02:49.276Z,77.20
2019-06-27T01:05:16.644Z,77.16
2019-06-27T01:07:44.083Z,77.32
2019-06-27T01:10:11.791Z,77.56
2019-06-27T01:12:39.314Z,77.56
2019-06-27T01:15:06.961Z,77.89
2019-06-27T01:17:34.332Z,78.19
2019-06-27T01:20:01.822Z,78.62
2019-06-27T01:22:29.231Z,78.21
2019-06-27T01:24:56.600Z,78.24
2019-06-27T01:27:29.965Z,78.61
2019-06-27T01:29:53.309Z,78.86
2019-06-27T01:32:20.757Z,80.04
2019-06-27T01:34:48.144Z,80.95
2019-06-27T01:37:15.537Z,79.58
2019-06-27T01:39:42.946Z,80.09
2019-06-27T01:42:10.322Z,80.05
2019-06-27T01:45:00.426Z,80.15
2019-06-27T01:47:27.814Z,79.53
2019-06-27T01:49:55.229Z,79.50
2019-06-27T01:52:23.093Z,79.08
2019-06-27T01:54:50.530Z,78.43
2019-06-27T01:57:18.006Z,77.67
2019-06-27T01:59:45.407Z,77.92
2019-06-27T02:02:12.919Z,77.40
2019-06-27T02:04:40.257Z,77.06
2019-06-27T02:07:07.653Z,76.77
2019-06-27T02:09:35.232Z,77.59
2019-06-27T02:12:02.717Z,77.90
2019-06-27T02:14:30.103Z,77.20
2019-06-27T02:16:57.613Z,76.88
2019-06-27T02:19:25.067Z,76.76
2019-06-27T02:21:52.510Z,75.91
2019-06-27T02:24:19.929Z,75.93
2019-06-27T02:26:47.380Z,76.19
2019-06-27T02:29:14.802Z,76.38
2019-06-27T02:31:42.405Z,76.71
2019-06-27T02:34:09.770Z,76.87
2019-06-27T02:36:37.179Z,76.18
2019-06-27T02:39:06.011Z,76.37
2019-06-27T02:41:33.394Z,76.61
2019-06-27T02:44:00.908Z,76.77
2019-06-27T02:46:28.320Z,77.08
2019-06-27T02:48:55.713Z,77.17
2019-06-27T02:51:23.125Z,77.52
2019-06-27T02:53:50.634Z,77.48
2019-06-27T02:56:18.040Z,77.51
2019-06-27T02:58:45.498Z,77.59
2019-06-27T03:01:12.918Z,76.86
2019-06-27T03:03:40.321Z,77.02
2019-06-27T03:06:07.919Z,77.29
2019-06-27T03:08:35.322Z,76.87
2019-06-27T03:11:02.834Z,77.19
2019-06-27T03:13:30.215Z,78.32
2019-06-27T03:15:57.634Z,77.87
2019-06-27T03:18:25.042Z,77.94
2019-06-27T03:20:52.487Z,79.74
2019-06-27T03:23:19.825Z,81.27
2019-06-27T03:25:47.211Z,84.35
2019-06-27T03:28:14.665Z,86.01
2019-06-27T03:30:42.171Z,88.48
2019-06-27T03:33:12.140Z,89.26
2019-06-27T03:35:39.629Z,90.04
2019-06-27T03:38:07.048Z,90.78
2019-06-27T03:40:34.474Z,91.49
2019-06-27T03:43:01.851Z,90.87
2019-06-27T03:45:29.270Z,91.84
2019-06-27T03:47:56.670Z,91.24
2019-06-27T03:50:24.047Z,91.54
2019-06-27T03:52:51.461Z,90.50
2019-06-27T03:55:18.920Z,90.47
2019-06-27T03:57:46.506Z,90.41
2019-06-27T04:00:20.926Z,89.15
2019-06-27T04:02:48.331Z,88.19
2019-06-27T04:05:15.687Z,88.25
2019-06-27T04:07:43.118Z,87.27
2019-06-27T04:10:10.542Z,87.29
2019-06-27T04:12:38.043Z,86.89
2019-06-27T04:15:05.951Z,86.52
2019-06-27T04:17:33.355Z,84.79
2019-06-27T04:20:00.759Z,83.75
2019-06-27T04:22:28.218Z,82.49
2019-06-27T04:24:55.589Z,81.22
2019-06-27T04:27:22.984Z,80.05
2019-06-27T04:29:50.404Z,77.59
2019-06-27T04:32:17.759Z,75.61
2019-06-27T04:34:45.139Z,72.68
2019-06-27T04:37:12.593Z,69.93
2019-06-27T04:39:39.979Z,68.03
2019-06-27T04:42:07.389Z,66.50
2019-06-27T04:44:34.815Z,66.23
2019-06-27T04:47:02.185Z,65.52
2019-06-27T04:49:29.601Z,67.41
2019-06-27T04:51:57.002Z,67.41
2019-06-27T04:54:24.454Z,67.45
2019-06-27T04:56:51.844Z,67.43
2019-06-27T04:59:19.259Z,68.12
2019-06-27T05:01:46.648Z,67.75
2019-06-27T05:04:14.045Z,68.08
2019-06-27T05:06:41.445Z,66.24
2019-06-27T05:09:08.812Z,66.31
2019-06-27T05:11:36.325Z,65.95
2019-06-27T05:14:03.794Z,65.92
2019-06-27T05:16:31.196Z,65.40
2019-06-27T05:18:58.579Z,65.67
2019-06-27T05:21:26.092Z,64.68
2019-06-27T05:23:53.489Z,65.08
2019-06-27T05:26:20.911Z,66.26
2019-06-27T05:28:48.328Z,63.84
2019-06-27T05:31:15.714Z,62.77
2019-06-27T05:33:43.132Z,62.29
2019-06-27T05:36:10.520Z,62.09
2019-06-27T05:38:37.962Z,60.74
2019-06-27T05:41:05.405Z,59.89
2019-06-27T05:43:32.764Z,59.95
2019-06-27T05:46:00.219Z,60.71
2019-06-27T05:48:27.555Z,61.13
2019-06-27T05:50:54.932Z,60.75
2019-06-27T05:53:22.549Z,61.66
2019-06-27T05:55:50.961Z,63.53
2019-06-27T05:58:18.357Z,62.63
2019-06-27T06:00:45.748Z,62.12
2019-06-27T06:03:13.165Z,61.97
2019-06-27T06:05:40.503Z,60.62
2019-06-27T06:08:07.958Z,59.91
2019-06-27T06:10:35.442Z,59.11
2019-06-27T06:13:02.828Z,59.29
2019-06-27T06:15:30.266Z,59.79
2019-06-27T06:17:57.675Z,59.40
2019-06-27T06:20:25.847Z,58.49
2019-06-27T06:22:53.266Z,57.99
2019-06-27T06:25:20.676Z,56.92
2019-06-27T06:27:48.087Z,55.99
2019-06-27T06:30:16.195Z,55.00
2019-06-27T06:32:43.609Z,55.03
2019-06-27T06:35:11.118Z,53.12
2019-06-27T06:37:38.610Z,52.42
2019-06-27T06:40:06.628Z,52.38
2019-06-27T06:42:34.008Z,53.28
2019-06-27T06:45:01.419Z,52.89
2019-06-27T06:47:28.797Z,53.46
2019-06-27T06:49:56.173Z,53.07
2019-06-27T06:52:23.606Z,52.09
2019-06-27T06:54:51.052Z,52.63
2019-06-27T06:57:18.518Z,50.80
2019-06-27T06:59:45.874Z,48.66
2019-06-27T07:02:13.330Z,48.25
2019-06-27T07:04:40.733Z,43.69
2019-06-27T07:07:08.176Z,44.12
2019-06-27T07:09:35.597Z,44.46
2019-06-27T07:12:03.143Z,44.04
2019-06-27T07:14:30.500Z,44.22
2019-06-27T07:16:57.931Z,44.47
2019-06-27T07:19:25.389Z,44.51
2019-06-27T07:21:52.915Z,42.67
2019-06-27T07:24:20.399Z,43.37
2019-06-27T07:26:47.839Z,44.27
2019-06-27T07:29:15.242Z,44.48
2019-06-27T07:31:42.844Z,41.51
2019-06-27T07:34:10.312Z,41.05
2019-06-27T07:36:37.634Z,42.94
2019-06-27T07:39:05.693Z,44.12
2019-06-27T07:41:33.109Z,42.65
2019-06-27T07:44:00.547Z,42.75
2019-06-27T07:46:27.946Z,44.81
2019-06-27T07:48:55.378Z,44.47
2019-06-27T07:51:22.762Z,44.60
2019-06-27T07:53:50.191Z,42.81
2019-06-27T07:56:17.679Z,42.08
2019-06-27T07:58:45.074Z,40.92
2019-06-27T08:01:12.523Z,38.61
2019-06-27T08:03:40.105Z,38.37
2019-06-27T08:06:07.571Z,39.20
2019-06-27T08:08:34.973Z,39.00
2019-06-27T08:11:02.646Z,39.97
2019-06-27T08:13:30.195Z,39.07
2019-06-27T08:15:57.691Z,38.78
2019-06-27T08:18:28.161Z,38.25
2019-06-27T08:20:54.400Z,39.32
2019-06-27T08:23:21.834Z,37.79
2019-06-27T08:25:49.299Z,38.61
2019-06-27T08:28:16.832Z,37.99
2019-06-27T08:30:44.351Z,37.65
2019-06-27T08:33:11.737Z,37.14
2019-06-27T08:35:39.261Z,37.13
2019-06-27T08:38:06.753Z,37.21
2019-06-27T08:40:34.203Z,35.13
2019-06-27T08:43:01.662Z,33.97
2019-06-27T08:45:29.130Z,34.11
2019-06-27T08:47:56.605Z,36.19
2019-06-27T08:50:24.137Z,36.44
2019-06-27T08:52:51.537Z,35.85
2019-06-27T08:55:18.972Z,36.33
2019-06-27T08:57:46.333Z,35.47
2019-06-27T09:00:14.224Z,35.36
2019-06-27T09:02:41.675Z,36.44
2019-06-27T09:05:09.260Z,35.43
2019-06-27T09:07:36.801Z,36.77
2019-06-27T09:10:05.144Z,37.41
2019-06-27T09:12:32.666Z,37.47
2019-06-27T09:15:00.249Z,37.67
2019-06-27T09:17:27.691Z,38.69
2019-06-27T09:19:55.111Z,38.30
2019-06-27T09:22:22.612Z,37.87
2019-06-27T09:24:50.055Z,38.13
2019-06-27T09:27:17.584Z,38.56
2019-06-27T09:29:45.016Z,39.48
2019-06-27T09:32:24.696Z,37.76
2019-06-27T09:34:41.780Z,33.94
2019-06-27T09:37:09.218Z,33.48
2019-06-27T09:39:36.650Z,33.61
2019-06-27T09:42:04.055Z,32.14
2019-06-27T09:44:31.503Z,31.92
2019-06-27T09:46:58.938Z,33.40
2019-06-27T09:49:26.965Z,34.14
2019-06-27T09:51:54.427Z,33.90
2019-06-27T09:54:21.947Z,32.87
2019-06-27T09:56:49.933Z,32.33
2019-06-27T09:59:17.448Z,31.80
2019-06-27T10:01:45.141Z,29.57
2019-06-27T10:04:12.557Z,28.93
2019-06-27T10:06:40.073Z,31.94
2019-06-27T10:09:07.562Z,31.52
2019-06-27T10:11:35.009Z,31.30
2019-06-27T10:14:02.588Z,30.96
2019-06-27T10:16:30.198Z,27.44
2019-06-27T10:18:57.644Z,26.15
2019-06-27T10:21:25.010Z,26.12
2019-06-27T10:23:52.428Z,28.27
2019-06-27T10:26:19.866Z,26.07
2019-06-27T10:28:47.277Z,26.09
2019-06-27T10:31:14.633Z,25.60
2019-06-27T10:33:42.069Z,25.94
2019-06-27T10:36:09.819Z,25.65
2019-06-27T10:38:37.324Z,26.23
2019-06-27T10:41:04.707Z,25.74
2019-06-27T10:43:32.266Z,26.84
2019-06-27T10:45:59.687Z,26.37
2019-06-27T10:48:27.124Z,26.17
2019-06-27T10:50:54.916Z,26.87
2019-06-27T10:53:22.558Z,27.07
2019-06-27T10:55:49.991Z,27.71
2019-06-27T10:58:17.502Z,27.05
2019-06-27T11:00:45.044Z,28.14
2019-06-27T11:03:16.005Z,27.17
2019-06-27T11:05:42.073Z,27.99
2019-06-27T11:08:09.464Z,27.86
2019-06-27T11:10:37.023Z,27.16
2019-06-27T11:13:04.524Z,26.97
2019-06-27T11:15:31.920Z,26.92
2019-06-27T11:17:59.471Z,25.66
2019-06-27T11:20:26.902Z,25.25
2019-06-27T11:22:54.290Z,25.07
2019-06-27T11:25:22.087Z,24.09
2019-06-27T11:27:49.535Z,24.38
2019-06-27T11:30:18.909Z,24.71
2019-06-27T11:32:46.345Z,26.48
2019-06-27T11:35:13.723Z,27.06
2019-06-27T11:37:41.187Z,27.69
2019-06-27T11:40:12.089Z,29.39
2019-06-27T11:42:38.545Z,30.21
2019-06-27T11:45:07.219Z,31.01
2019-06-27T11:47:34.862Z,30.53
2019-06-27T11:50:02.430Z,30.24
2019-06-27T11:52:29.790Z,29.75
2019-06-27T11:54:57.235Z,28.72
2019-06-27T11:57:25.214Z,28.78
2019-06-27T11:59:52.605Z,29.24
2019-06-27T12:02:20.047Z,29.28
2019-06-27T12:04:47.506Z,29.62
2019-06-27T12:07:14.993Z,29.90
2019-06-27T12:09:42.475Z,28.71
2019-06-27T12:12:09.879Z,29.80
2019-06-27T12:14:37.311Z,29.19
2019-06-27T12:17:04.729Z,28.08
2019-06-27T12:19:32.224Z,28.32
2019-06-27T12:21:59.703Z,27.23
2019-06-27T12:24:27.158Z,27.18
2019-06-27T12:26:54.639Z,25.87
2019-06-27T12:29:21.966Z,26.08
2019-06-27T12:31:51.667Z,25.93
2019-06-27T12:34:18.711Z,28.01
2019-06-27T12:36:46.652Z,28.53
2019-06-27T12:39:14.709Z,28.70
2019-06-27T12:41:42.161Z,29.96
2019-06-27T12:44:10.430Z,30.50
2019-06-27T12:46:38.677Z,31.04
2019-06-27T12:49:06.210Z,30.31
2019-06-27T12:51:33.660Z,30.64
2019-06-27T12:54:01.110Z,31.50
2019-06-27T12:56:29.294Z,31.39
2019-06-27T12:58:57.055Z,31.86
2019-06-27T13:01:24.605Z,33.15
2019-06-27T13:03:52.002Z,32.88
2019-06-27T13:06:19.451Z,33.25
2019-06-27T13:08:46.869Z,33.15
2019-06-27T13:11:14.301Z,33.11
2019-06-27T13:13:41.737Z,33.73
2019-06-27T13:16:09.192Z,33.63
2019-06-27T13:18:36.559Z,34.72
2019-06-27T13:21:04.282Z,35.23
2019-06-27T13:23:31.742Z,35.41
2019-06-27T13:25:59.210Z,34.64
2019-06-27T13:28:26.605Z,35.61
2019-06-27T13:30:54.051Z,34.49
2019-06-27T13:33:21.423Z,35.34
2019-06-27T13:35:49.301Z,34.49
2019-06-27T13:38:16.771Z,34.75
2019-06-27T13:40:44.276Z,33.83
2019-06-27T13:43:11.620Z,32.82
2019-06-27T13:45:39.095Z,33.40
2019-06-27T13:48:06.557Z,34.15
2019-06-27T13:50:34.012Z,34.50
2019-06-27T13:53:01.444Z,33.95
2019-06-27T13:55:29.047Z,34.20
2019-06-27T13:57:57.817Z,33.37
2019-06-27T14:00:37.590Z,34.30
2019-06-27T14:03:05.015Z,33.59
2019-06-27T14:05:32.446Z,33.52
2019-06-27T14:07:59.880Z,33.00
2019-06-27T14:10:27.268Z,33.85
2019-06-27T14:12:54.649Z,32.46
2019-06-27T14:15:22.174Z,33.39
2019-06-27T14:17:49.604Z,32.86
2019-06-27T14:20:17.114Z,32.80
2019-06-27T14:22:44.647Z,31.87
2019-06-27T14:25:12.300Z,32.50
2019-06-27T14:27:39.668Z,31.43
2019-06-27T14:30:08.771Z,32.18
2019-06-27T14:32:36.197Z,31.96
2019-06-27T14:35:14.737Z,31.56
2019-06-27T14:37:33.560Z,31.85
2019-06-27T14:40:01.116Z,31.54
2019-06-27T14:42:28.543Z,31.44
2019-06-27T14:44:56.024Z,30.79
2019-06-27T14:47:23.402Z,30.77
2019-06-27T14:49:50.991Z,31.48
2019-06-27T14:52:18.416Z,30.84
2019-06-27T14:54:47.321Z,30.78
2019-06-27T14:57:14.988Z,30.88
2019-06-27T14:59:43.092Z,31.48
2019-06-27T15:02:10.451Z,31.97
2019-06-27T15:04:37.871Z,30.89
2019-06-27T15:07:05.409Z,30.81
2019-06-27T15:09:33.013Z,30.33
2019-06-27T15:12:00.483Z,30.22
2019-06-27T15:14:27.834Z,30.69
2019-06-27T15:16:55.338Z,30.06
2019-06-27T15:19:22.792Z,31.02
2019-06-27T15:21:50.182Z,30.48
2019-06-27T15:24:17.737Z,30.41
2019-06-27T15:26:45.287Z,30.22
2019-06-27T15:29:12.752Z,30.52
2019-06-27T15:31:40.140Z,31.23
2019-06-27T15:34:07.574Z,30.66
2019-06-27T15:36:35.018Z,32.10
2019-06-27T15:39:03.932Z,32.98
2019-06-27T15:41:31.410Z,32.71
2019-06-27T15:43:58.790Z,33.08
2019-06-27T15:46:26.219Z,31.98
2019-06-27T15:48:53.635Z,31.76
2019-06-27T15:51:21.002Z,32.28
2019-06-27T15:53:48.444Z,33.02
2019-06-27T15:56:15.924Z,32.85
2019-06-27T15:58:43.398Z,32.93
2019-06-27T16:01:10.779Z,32.70
2019-06-27T16:03:38.207Z,32.45
2019-06-27T16:06:09.739Z,33.01
2019-06-27T16:08:34.972Z,33.29
2019-06-27T16:11:02.410Z,34.68
2019-06-27T16:13:29.783Z,35.18
2019-06-27T16:15:57.192Z,35.88
2019-06-27T16:18:24.628Z,36.79
2019-06-27T16:20:52.012Z,36.80
2019-06-27T16:23:19.440Z,37.08
2019-06-27T16:25:47.022Z,37.48
2019-06-27T16:28:14.456Z,37.08
2019-06-27T16:30:41.874Z,36.62
2019-06-27T16:33:09.334Z,37.38
2019-06-27T16:35:36.809Z,35.53
2019-06-27T16:38:04.238Z,35.98
2019-06-27T16:40:31.670Z,37.97
2019-06-27T16:42:59.113Z,39.09
2019-06-27T16:45:26.637Z,39.68
2019-06-27T16:47:54.027Z,39.79
2019-06-27T16:50:21.594Z,39.39
2019-06-27T16:52:49.030Z,38.48
2019-06-27T16:55:16.524Z,38.96
2019-06-27T16:57:43.972Z,38.90
2019-06-27T17:00:11.815Z,38.55
2019-06-27T17:02:39.291Z,38.36
2019-06-27T17:05:07.224Z,38.15
2019-06-27T17:07:34.703Z,38.14
2019-06-27T17:10:02.082Z,38.20
2019-06-27T17:12:29.485Z,38.72
2019-06-27T17:14:56.973Z,39.28
2019-06-27T17:17:24.400Z,39.52
2019-06-27T17:19:51.824Z,39.78
2019-06-27T17:22:19.178Z,39.88
2019-06-27T17:24:46.601Z,40.32
2019-06-27T17:27:14.147Z,40.62
2019-06-27T17:29:41.553Z,40.46
2019-06-27T17:32:09.685Z,40.96
2019-06-27T17:34:37.189Z,41.42
2019-06-27T17:37:04.696Z,41.51
2019-06-27T17:39:32.117Z,41.89
2019-06-27T17:41:59.595Z,42.33
2019-06-27T17:44:27.033Z,42.19
2019-06-27T17:46:54.463Z,45.62
2019-06-27T17:49:21.872Z,46.46
2019-06-27T17:51:49.286Z,47.58
2019-06-27T17:54:16.710Z,48.30
2019-06-27T17:56:44.180Z,48.79
2019-06-27T17:59:11.610Z,49.72
2019-06-27T18:01:38.996Z,50.22
2019-06-27T18:04:06.435Z,50.58
2019-06-27T18:06:33.884Z,50.69
2019-06-27T18:09:01.320Z,51.04
2019-06-27T18:11:28.775Z,51.42
2019-06-27T18:13:56.130Z,51.63
2019-06-27T18:16:23.609Z,52.07
2019-06-27T18:18:51.072Z,51.22
2019-06-27T18:21:18.614Z,51.72
2019-06-27T18:23:46.071Z,51.57
2019-06-27T18:26:13.580Z,51.88
2019-06-27T18:28:41.104Z,51.45
2019-06-27T18:31:08.598Z,52.17
2019-06-27T18:33:36.112Z,52.83
2019-06-27T18:36:03.594Z,53.52
2019-06-27T18:38:31.060Z,53.79
2019-06-27T18:40:58.472Z,54.02
2019-06-27T18:43:25.977Z,54.41
2019-06-27T18:45:53.427Z,54.15
2019-06-27T18:48:20.862Z,54.69
2019-06-27T18:50:48.361Z,55.06
2019-06-27T18:53:15.914Z,54.64
2019-06-27T18:55:43.605Z,54.48
2019-06-27T18:58:11.020Z,54.31
2019-06-27T19:00:39.077Z,53.81
2019-06-27T19:03:06.524Z,54.78
2019-06-27T19:05:34.065Z,53.64
2019-06-27T19:08:01.498Z,54.50
2019-06-27T19:10:29.081Z,54.81
2019-06-27T19:12:56.531Z,54.51
2019-06-27T19:15:24.010Z,54.14
2019-06-27T19:17:51.446Z,54.41
2019-06-27T19:20:34.237Z,54.09
2019-06-27T19:23:19.871Z,53.64
2019-06-27T19:25:48.672Z,52.62
2019-06-27T19:28:16.063Z,51.96
2019-06-27T19:30:43.611Z,54.19
2019-06-27T19:33:11.193Z,54.71
2019-06-27T19:35:38.626Z,56.54
2019-06-27T19:38:06.151Z,56.64
2019-06-27T19:40:33.583Z,56.05
2019-06-27T19:43:01.245Z,56.70
2019-06-27T19:45:28.709Z,57.30
2019-06-27T19:47:56.145Z,57.28
2019-06-27T19:50:23.523Z,57.39
2019-06-27T19:52:50.968Z,55.14
2019-06-27T19:55:18.403Z,55.07
2019-06-27T19:57:46.364Z,54.98
2019-06-27T20:00:14.166Z,55.22
2019-06-27T20:02:41.584Z,55.78
2019-06-27T20:05:09.681Z,55.94
2019-06-27T20:07:37.062Z,55.01
2019-06-27T20:10:05.179Z,55.80
2019-06-27T20:12:32.602Z,53.95
2019-06-27T20:14:59.967Z,54.32
2019-06-27T20:17:27.386Z,56.02
2019-06-27T20:19:54.952Z,56.18
2019-06-27T20:22:22.508Z,57.09
2019-06-27T20:24:49.893Z,57.09
2019-06-27T20:27:17.325Z,57.46
2019-06-27T20:29:44.775Z,58.52
2019-06-27T20:32:12.326Z,59.66
2019-06-27T20:34:41.284Z,60.52
2019-06-27T20:37:08.758Z,60.91
2019-06-27T20:39:36.110Z,61.29
2019-06-27T20:42:03.526Z,60.52
2019-06-27T20:44:31.021Z,59.21
2019-06-27T20:46:58.463Z,58.63
2019-06-27T20:49:25.819Z,59.15
2019-06-27T20:51:53.275Z,60.24
2019-06-27T20:54:20.682Z,59.92
2019-06-27T20:56:48.064Z,59.99
2019-06-27T20:59:15.455Z,59.63
2019-06-27T21:01:42.859Z,59.38
2019-06-27T21:04:10.221Z,59.38
2019-06-27T21:06:37.670Z,59.48
2019-06-27T21:09:05.435Z,59.91
2019-06-27T21:11:32.798Z,60.42
2019-06-27T21:14:00.198Z,59.78
2019-06-27T21:16:27.642Z,59.18
2019-06-27T21:18:55.006Z,59.47
2019-06-27T21:21:22.499Z,59.94
2019-06-27T21:23:49.904Z,60.76
2019-06-27T21:26:17.387Z,61.04
2019-06-27T21:28:44.811Z,61.31
2019-06-27T21:31:12.351Z,61.32
2019-06-27T21:33:39.879Z,61.14
2019-06-27T21:36:07.401Z,62.20
2019-06-27T21:38:34.813Z,61.49
2019-06-27T21:41:02.244Z,62.68
2019-06-27T21:43:29.653Z,63.15
2019-06-27T21:45:57.013Z,64.09
2019-06-27T21:48:24.422Z,64.47
2019-06-27T21:50:51.840Z,64.56
2019-06-27T21:53:19.243Z,64.39
2019-06-27T21:55:46.698Z,65.08
2019-06-27T21:58:14.111Z,65.47
2019-06-27T22:00:42.682Z,65.63
2019-06-27T22:03:10.275Z,66.76
2019-06-27T22:05:37.963Z,66.09
2019-06-27T22:08:05.512Z,66.79
2019-06-27T22:10:33.146Z,67.16
2019-06-27T22:13:00.526Z,68.25
2019-06-27T22:15:28.077Z,68.47
2019-06-27T22:17:55.682Z,69.11
2019-06-27T22:20:23.201Z,69.41
2019-06-27T22:22:50.879Z,68.70
2019-06-27T22:25:18.320Z,69.22
2019-06-27T22:27:45.782Z,69.64
2019-06-27T22:30:14.016Z,69.31
2019-06-27T22:32:41.455Z,69.49
2019-06-27T22:35:09.465Z,69.28
2019-06-27T22:37:36.377Z,68.43
2019-06-27T22:40:22.213Z,68.59
2019-06-27T22:43:07.639Z,68.96
2019-06-27T22:45:53.105Z,69.68
2019-06-27T22:48:20.734Z,69.21
2019-06-27T22:51:10.984Z,68.67
2019-06-27T22:53:45.332Z,68.39
2019-06-27T22:56:12.812Z,67.83
2019-06-27T22:58:40.212Z,67.93
2019-06-27T23:01:07.905Z,67.64
2019-06-27T23:03:35.290Z,67.85
2019-06-27T23:06:02.711Z,67.22
2019-06-27T23:08:30.120Z,68.05
2019-06-27T23:10:57.632Z,68.00
2019-06-27T23:13:24.993Z,68.04
2019-06-27T23:15:52.561Z,67.77
2019-06-27T23:18:20.021Z,67.80
2019-06-27T23:20:47.504Z,68.31
2019-06-27T23:23:14.943Z,68.37
2019-06-27T23:25:42.354Z,68.03
2019-06-27T23:28:09.753Z,67.82
2019-06-27T23:30:37.203Z,68.50
2019-06-27T23:33:04.728Z,68.00
2019-06-27T23:35:32.250Z,68.95
2019-06-27T23:37:59.731Z,68.41
2019-06-27T23:40:27.264Z,67.03
2019-06-27T23:42:54.640Z,68.28
2019-06-27T23:45:22.064Z,67.77
2019-06-27T23:47:49.493Z,67.30
2019-06-27T23:50:16.915Z,66.96
2019-06-27T23:52:44.334Z,66.73
2019-06-27T23:55:11.877Z,66.23
2019-06-27T23:57:39.386Z,65.56
